Tri-State/Milton J. Ferguson Field
KHTS : now visible

Airfield :











YOU CAN JOIN US ON...

 
LOGIN :

Register | Disclaimer

   EN    FR    IT 

 









Legend :    VFR   Marginal VFR   IFR   Intensive IFR   Very Intensive IFR
Visi :
Ceiling :
>= 8 km
>= 3000ft
5 to 8 km
1000 to 3000 ft
1500m to 5 km
500 to 1000 ft
800 to 1500m
200 to 500 ft
< 800m
< 200 ft
Symbols :   Thunderstorms  Fog  Heavy snow  Heavy precipitations  Wind > 20 kt







- Airport Elevation : 828 ft
- IATA code : HTS


KHTS - Tri-State/Milton J. Ferguson Field

CURRENT METAR :
  • 190951Z 13003KT 10SM CLR 22/21 A3001 RMK AO2 SLP151 T02220211

EXPIRED METARs :
  • 190851Z 03003KT 9SM CLR 22/21 A3001 RMK AO2 SLP151 T02220211 53004
  • 190751Z 00000KT 10SM CLR 23/21 A3000 RMK AO2 SLP148 T02330211

TAF KHTS
Valid from the 19 at 09:00 until the 20 at 06:00 UTC


190901Z 1909/2006 00000KT 6SM BR BKN250
FM191000 VRB03KT P6SM SCT250
FM191800 23005KT P6SM SCT200
No reported NOTAMs for that airfield.



MET'MAP, your aeronautical weather chart ! - Copyright ORBIFLY December 2007 - Disclaimer

ORBIFLY MET'MAP TEAM :

Programming & Development : Alexandra Zaïnal
Concept & Development : Baudouin d'Aumeries
Co-Development & Prog : Marc-Olivier Méhu
Technical & hardware support : Manuel Goepfert

Contact : metmap@orbifly.com




SOURCES & CREDITS :

   NOAA       Earth
Advisory